Time;durP1;ratioP1;P1;durP2;ratioP2;P2;SDS_P1;SDS_P2;PMS_P1;PMS_P2;Temp;Humidity;BMP_temperature;BMP_pressure;BME280_temperature;BME280_humidity;BME280_pressure;Samples;Min_cycle;Max_cycle;Signal;HPM_P1;HPM_P2
2022/08/29 00:00:06;;;;;;;;;2.25;2.25;;;;;22.89;38.59;100948.38;5026980;28;45636;-63
2022/08/29 00:03:05;;;;;;;;;1.25;1.25;;;;;22.88;38.53;100950.19;5016222;28;45538;-63
2022/08/29 00:05:48;;;;;;;;;2.00;2.00;;;;;22.88;38.52;100936.78;4999585;28;45447;-64
2022/08/29 00:25:27;;;;;;;;;4.50;3.25;;;;;22.78;38.78;100934.97;5015497;28;45608;-63
2022/08/29 00:27:53;;;;;;;;;4.50;3.00;;;;;22.77;38.97;100944.00;4999197;28;44854;-64
2022/08/29 00:30:25;;;;;;;;;1.50;1.50;;;;;22.69;38.80;100936.59;4999563;28;45638;-63
2022/08/29 00:36:00;;;;;;;;;3.00;2.00;;;;;22.68;38.69;100935.75;5016964;28;45631;-64
2022/08/29 00:38:27;;;;;;;;;2.00;2.00;;;;;22.71;39.03;100938.16;4998596;28;45556;-63
2022/08/29 00:41:03;;;;;;;;;1.75;1.75;;;;;22.70;38.96;100943.66;5068368;28;45590;-65
2022/08/29 00:43:57;;;;;;;;;2.75;2.00;;;;;22.70;38.87;100940.97;5026919;27;45595;-65
2022/08/29 00:52:59;;;;;;;;;2.00;2.00;;;;;22.59;38.89;100932.94;5094739;27;45503;-63
2022/08/29 00:55:49;;;;;;;;;1.25;1.25;;;;;22.62;39.22;100938.06;5049097;27;46183;-65
2022/08/29 00:58:51;;;;;;;;;2.00;2.00;;;;;22.60;38.94;100943.56;5084525;27;45521;-64
2022/08/29 01:02:03;;;;;;;;;2.00;2.00;;;;;22.59;39.21;100952.56;5055163;27;45471;-64
2022/08/29 01:04:54;;;;;;;;;2.00;2.00;;;;;22.59;39.03;100952.56;5069002;27;45486;-65
2022/08/29 01:07:24;;;;;;;;;1.50;1.50;;;;;22.58;38.97;100953.53;5084609;27;45579;-64
2022/08/29 01:10:04;;;;;;;;;2.00;1.00;;;;;22.57;38.97;100953.66;5090367;27;45482;-65
2022/08/29 01:13:04;;;;;;;;;2.75;2.50;;;;;22.54;39.07;100946.75;5086656;27;45576;-64
2022/08/29 01:15:42;;;;;;;;;1.00;1.00;;;;;22.56;39.26;100942.09;5050262;27;45495;-63
2022/08/29 01:18:25;;;;;;;;;4.25;3.75;;;;;22.56;39.24;100936.72;5065884;27;45656;-65
2022/08/29 01:21:12;;;;;;;;;2.75;2.75;;;;;22.56;38.98;100935.88;5041717;27;45411;-63
2022/08/29 01:24:16;;;;;;;;;1.75;1.75;;;;;22.55;39.43;100936.84;5102413;27;45519;-65
2022/08/29 01:26:53;;;;;;;;;1.50;1.50;;;;;22.56;39.35;100926.00;5066454;27;45555;-63
2022/08/29 01:29:47;;;;;;;;;2.00;2.00;;;;;22.56;39.39;100927.84;5101596;27;46242;-65
2022/08/29 01:32:17;;;;;;;;;3.25;2.00;;;;;22.53;39.09;100934.28;5083448;27;45478;-63
2022/08/29 01:37:40;;;;;;;;;3.00;3.00;;;;;22.52;39.34;100932.59;5101415;27;45403;-65
2022/08/29 01:40:45;;;;;;;;;1.00;1.00;;;;;22.50;39.18;100934.53;5071812;27;45888;-65
2022/08/29 01:43:19;;;;;;;;;1.00;1.00;;;;;22.47;39.16;100934.78;5083775;27;45517;-65
2022/08/29 01:46:07;;;;;;;;;1.00;1.00;;;;;22.48;39.40;100933.81;5067352;27;45550;-66
2022/08/29 01:48:51;;;;;;;;;1.25;1.25;;;;;22.46;39.44;100930.38;5082199;27;45374;-66
2022/08/29 01:54:15;;;;;;;;;1.50;1.50;;;;;22.44;39.05;100929.69;5086048;27;45554;-65
2022/08/29 01:57:04;;;;;;;;;2.00;2.00;;;;;22.39;39.18;100923.84;5065191;27;45470;-64
2022/08/29 01:59:30;;;;;;;;;2.00;1.00;;;;;22.37;39.37;100920.41;5082642;27;45492;-64
2022/08/29 02:08:41;;;;;;;;;1.00;1.00;;;;;22.34;39.38;100920.66;5101045;27;45533;-64
2022/08/29 02:11:32;;;;;;;;;2.25;1.25;;;;;22.34;39.30;100920.66;5101131;27;45506;-64
2022/08/29 02:14:22;;;;;;;;;2.50;2.25;;;;;22.32;39.30;100919.94;5065811;27;46562;-63
2022/08/29 02:20:47;;;;;;;;;1.00;1.00;;;;;22.28;39.76;100922.84;5100322;27;45458;-65
2022/08/29 02:23:34;;;;;;;;;2.00;2.00;;;;;22.26;39.75;100922.13;5100133;27;45545;-63
2022/08/29 02:26:05;;;;;;;;;1.00;1.00;;;;;22.24;39.66;100918.69;5082070;27;45752;-63
2022/08/29 02:28:46;;;;;;;;;3.75;1.00;;;;;22.22;39.92;100912.63;5083891;27;45497;-65
2022/08/29 02:31:12;;;;;;;;;3.50;3.00;;;;;22.23;39.79;100908.97;5015421;27;45559;-64
2022/08/29 02:33:48;;;;;;;;;2.50;2.00;;;;;22.23;39.68;100914.31;5083681;27;45468;-63
2022/08/29 02:36:40;;;;;;;;;1.25;1.25;;;;;22.23;39.63;100908.97;5032821;27;46419;-63
2022/08/29 02:39:29;;;;;;;;;1.00;1.00;;;;;22.22;39.66;100907.28;5065637;27;45534;-65
2022/08/29 02:44:57;;;;;;;;;2.00;2.00;;;;;22.17;40.02;100909.44;5056223;27;45654;-64
2022/08/29 02:53:42;;;;;;;;;3.50;2.50;;;;;22.11;39.91;100903.69;5100792;27;45445;-65
2022/08/29 02:56:14;;;;;;;;;2.75;1.75;;;;;22.10;39.78;100908.19;5101431;27;45664;-63
2022/08/29 02:58:53;;;;;;;;;2.00;2.00;;;;;22.08;39.79;100904.78;5082685;27;46556;-65
2022/08/29 03:05:25;;;;;;;;;2.00;2.00;;;;;22.02;40.14;100910.63;5099633;27;45386;-65
2022/08/29 03:11:37;;;;;;;;;4.00;3.00;;;;;21.94;40.25;100908.56;5062834;27;45568;-65
2022/08/29 03:21:04;;;;;;;;;2.00;2.00;;;;;21.88;40.39;100901.00;4957691;28;45455;-65
2022/08/29 03:24:04;;;;;;;;;2.00;2.00;;;;;21.84;40.42;100903.09;4954875;28;45566;-66
2022/08/29 03:26:44;;;;;;;;;2.00;1.00;;;;;21.84;40.56;100905.75;4941177;28;45450;-62
2022/08/29 03:29:39;;;;;;;;;2.00;2.00;;;;;21.80;40.51;100901.59;4958174;28;45379;-65
2022/08/29 03:32:17;;;;;;;;;1.00;1.00;;;;;21.82;40.76;100896.13;4941347;28;45505;-64
2022/08/29 03:34:46;;;;;;;;;1.00;1.00;;;;;21.82;40.86;100888.09;4957927;28;45600;-64
2022/08/29 03:37:39;;;;;;;;;2.75;2.75;;;;;21.78;40.92;100892.81;4957640;28;45546;-63
2022/08/29 03:40:32;;;;;;;;;3.00;2.00;;;;;21.76;40.88;100891.22;4955841;28;45463;-64
2022/08/29 03:43:37;;;;;;;;;3.25;2.75;;;;;21.78;41.05;100898.19;4908715;28;45593;-64
2022/08/29 03:46:19;;;;;;;;;1.00;1.00;;;;;21.80;40.75;100895.41;5018873;28;46175;-65
2022/08/29 03:49:14;;;;;;;;;1.75;1.75;;;;;21.78;40.90;100895.50;5036619;28;45598;-64
2022/08/29 03:52:09;;;;;;;;;1.75;1.75;;;;;21.77;40.82;100895.63;5040899;28;45565;-64
2022/08/29 03:57:57;;;;;;;;;3.00;3.00;;;;;21.71;40.90;100896.97;5057058;28;45553;-64
2022/08/29 04:00:34;;;;;;;;;3.00;1.50;;;;;21.68;41.07;100894.53;4992457;28;45439;-64
2022/08/29 04:03:11;;;;;;;;;2.00;1.00;;;;;21.67;41.09;100886.59;5039284;28;45470;-63
2022/08/29 04:06:00;;;;;;;;;1.00;1.00;;;;;21.71;41.22;100905.00;4975765;28;45707;-65
2022/08/29 04:08:33;;;;;;;;;3.00;3.00;;;;;21.68;41.27;100904.38;5040141;28;46350;-63
2022/08/29 04:18:27;;;;;;;;;2.50;1.00;;;;;21.59;40.99;100892.56;5076466;28;45380;-63
2022/08/29 04:21:06;;;;;;;;;2.00;2.00;;;;;21.58;41.29;100897.06;5041846;28;45580;-64
2022/08/29 04:24:11;;;;;;;;;3.00;3.00;;;;;21.54;41.42;100900.06;4976542;28;45572;-64
2022/08/29 04:26:47;;;;;;;;;2.25;2.25;;;;;21.52;41.22;100899.34;5078830;28;45437;-65
2022/08/29 04:29:26;;;;;;;;;2.25;1.25;;;;;21.50;41.42;100898.63;4997559;28;45509;-66
2022/08/29 04:31:51;;;;;;;;;2.75;2.75;;;;;21.52;41.34;100899.34;5077914;28;45978;-65
2022/08/29 04:34:38;;;;;;;;;3.00;3.00;;;;;21.48;41.84;100903.22;5078439;28;45450;-65
2022/08/29 04:37:14;;;;;;;;;2.00;2.00;;;;;21.44;41.68;100896.38;5043116;28;45468;-64
2022/08/29 04:40:24;;;;;;;;;2.00;2.00;;;;;21.46;41.49;100897.97;5042791;28;45512;-64
2022/08/29 04:43:23;;;;;;;;;1.50;1.50;;;;;21.46;41.67;100903.34;5019720;28;45687;-65
2022/08/29 04:46:16;;;;;;;;;2.00;2.00;;;;;21.45;41.80;100906.16;4978903;28;45615;-66
2022/08/29 04:49:06;;;;;;;;;2.25;2.25;;;;;21.45;41.55;100907.00;4989995;28;45570;-64
2022/08/29 04:54:34;;;;;;;;;2.00;2.00;;;;;21.44;41.61;100912.44;5009088;28;45652;-65
2022/08/29 04:57:49;;;;;;;;;2.00;2.00;;;;;21.42;41.66;100912.59;5015456;28;45623;-63
2022/08/29 05:03:49;;;;;;;;;0.75;0.75;;;;;21.39;41.58;100929.72;5015848;28;45497;-63
2022/08/29 05:06:40;;;;;;;;;3.67;3.67;;;;;21.37;41.70;100928.97;4998771;28;45467;-64
2022/08/29 05:09:28;;;;;;;;;1.00;1.00;;;;;21.37;42.07;100930.78;4982968;28;45456;-65
2022/08/29 05:12:00;;;;;;;;;3.00;2.00;;;;;21.38;41.56;100937.84;5009874;28;45674;-64
2022/08/29 05:17:28;;;;;;;;;2.50;2.00;;;;;21.38;41.57;100932.50;5015681;28;45522;-64
2022/08/29 05:20:03;;;;;;;;;4.75;3.25;;;;;21.35;42.18;100932.69;5001679;28;45507;-65
2022/08/29 05:22:33;;;;;;;;;1.00;1.00;;;;;21.32;41.88;100923.09;5016151;28;45480;-65
2022/08/29 05:28:04;;;;;;;;;3.00;3.00;;;;;21.32;41.96;100939.13;5078802;28;45477;-65
2022/08/29 05:30:30;;;;;;;;;3.50;2.00;;;;;21.32;41.86;100944.50;5059190;28;45362;-65
2022/08/29 05:32:56;;;;;;;;;2.00;2.00;;;;;21.30;41.82;100950.91;5079950;28;45526;-63
2022/08/29 05:35:21;;;;;;;;;2.25;2.25;;;;;21.31;41.93;100964.19;5080746;28;45593;-64
2022/08/29 05:38:13;;;;;;;;;3.25;2.00;;;;;21.28;42.44;100958.19;5082286;28;45569;-64
2022/08/29 05:40:51;;;;;;;;;3.00;3.00;;;;;21.28;42.05;100958.19;5042535;28;45520;-65
2022/08/29 05:46:25;;;;;;;;;4.00;2.67;;;;;21.30;41.81;100970.50;5081098;28;45560;-64
2022/08/29 05:49:12;;;;;;;;;4.00;4.00;;;;;21.30;41.91;100962.47;5062677;28;46135;-63
2022/08/29 05:52:03;;;;;;;;;2.00;2.00;;;;;21.30;41.99;100961.63;5063119;27;45495;-63
2022/08/29 05:54:47;;;;;;;;;5.67;3.00;;;;;21.29;42.12;100963.44;5065501;27;45579;-64
2022/08/29 05:57:28;;;;;;;;;6.00;3.00;;;;;21.30;41.93;100966.97;5096396;27;45431;-63
2022/08/29 06:00:09;;;;;;;;;2.00;2.00;;;;;21.31;41.94;100961.53;5036484;27;45545;-63
2022/08/29 06:02:56;;;;;;;;;2.50;2.50;;;;;21.30;41.82;100970.50;5082790;27;45470;-66
2022/08/29 06:05:48;;;;;;;;;4.00;4.00;;;;;21.29;42.09;100974.16;5065495;27;45573;-60
2022/08/29 06:08:22;;;;;;;;;3.00;2.00;;;;;21.29;42.34;100971.47;5064805;27;45553;-61
2022/08/29 06:10:51;;;;;;;;;1.00;1.00;;;;;21.29;42.25;100970.63;5100501;27;45492;-66
2022/08/29 06:16:49;;;;;;;;;4.00;4.00;;;;;21.36;42.11;100980.75;5101991;27;45492;-66
2022/08/29 06:19:57;;;;;;;;;2.67;2.67;;;;;21.37;42.10;100981.59;5071247;27;45704;-63
2022/08/29 06:22:40;;;;;;;;;3.33;2.00;;;;;21.38;42.50;100980.66;5048267;27;45477;-62
2022/08/29 06:25:17;;;;;;;;;2.33;2.33;;;;;21.39;42.03;100983.25;5100648;27;45511;-62
2022/08/29 06:28:30;;;;;;;;;2.67;2.00;;;;;21.38;41.95;100997.56;5048876;27;45661;-62
2022/08/29 06:31:27;;;;;;;;;2.00;2.00;;;;;21.39;42.11;101004.66;5058056;27;45592;-62
2022/08/29 06:34:04;;;;;;;;;2.67;2.00;;;;;21.40;42.05;101005.50;5048080;27;46484;-62
2022/08/29 06:37:15;;;;;;;;;3.00;2.00;;;;;21.43;41.85;100999.91;5100373;27;45477;-63
2022/08/29 06:40:06;;;;;;;;;3.00;1.50;;;;;21.44;41.70;100995.41;5059285;27;45586;-63
2022/08/29 07:10:15;;;;;;;;;3.00;3.00;;;;;21.36;42.47;101004.00;5099937;27;45437;-66
2022/08/29 07:13:20;;;;;;;;;4.33;4.33;;;;;21.34;42.52;100998.75;5081165;27;46364;-63
2022/08/29 07:15:53;;;;;;;;;3.33;3.33;;;;;21.41;42.33;101001.84;5081227;27;45505;-64
2022/08/29 07:18:50;;;;;;;;;9.67;9.00;;;;;21.46;42.29;101002.34;5032570;27;45524;-63
2022/08/29 07:21:38;;;;;;;;;4.00;4.00;;;;;21.50;42.34;101005.69;5047573;27;45579;-62
2022/08/29 07:24:12;;;;;;;;;4.00;4.00;;;;;21.54;42.31;101005.31;5064400;27;45543;-64
2022/08/29 07:26:53;;;;;;;;;3.00;3.00;;;;;21.55;42.29;101007.03;5063706;27;45672;-65
2022/08/29 07:29:20;;;;;;;;;4.67;3.00;;;;;21.60;42.11;101012.91;5018043;27;45455;-64
2022/08/29 07:32:04;;;;;;;;;5.00;5.00;;;;;21.62;42.16;101007.41;5099331;27;45901;-64
2022/08/29 07:34:51;;;;;;;;;3.00;3.00;;;;;21.65;42.00;101009.00;5081744;27;45467;-65
2022/08/29 07:37:37;;;;;;;;;5.67;4.00;;;;;21.67;42.07;101009.75;5089699;27;45497;-66
2022/08/29 07:40:08;;;;;;;;;2.67;2.67;;;;;21.69;41.83;101014.03;5099659;27;45441;-66
2022/08/29 07:46:12;;;;;;;;;6.33;3.00;;;;;21.71;41.84;101009.41;5083962;27;45621;-64
2022/08/29 07:48:53;;;;;;;;;4.67;4.67;;;;;21.77;42.14;101014.28;5024902;27;45409;-62
2022/08/29 07:54:37;;;;;;;;;4.00;4.00;;;;;21.84;41.58;101010.19;5099384;27;45477;-62
2022/08/29 07:57:09;;;;;;;;;3.33;2.67;;;;;21.86;41.39;101026.13;5080445;27;45493;-62
2022/08/29 07:59:59;;;;;;;;;4.00;4.00;;;;;21.90;41.99;101018.72;5080880;27;45473;-62
2022/08/29 08:02:56;;;;;;;;;3.00;3.00;;;;;21.96;41.63;101020.94;5088513;27;45486;-64
2022/08/29 08:05:33;;;;;;;;;4.00;4.00;;;;;22.01;41.48;101022.28;5080594;27;45597;-64
2022/08/29 08:08:15;;;;;;;;;3.00;3.00;;;;;22.05;41.49;101013.03;5064083;27;45600;-63
2022/08/29 08:10:59;;;;;;;;;2.50;2.50;;;;;22.04;41.33;101005.97;5098947;27;45468;-64
2022/08/29 08:13:27;;;;;;;;;3.25;2.25;;;;;22.06;41.29;101001.34;5033450;27;45734;-64
2022/08/29 08:18:51;;;;;;;;;3.00;3.00;;;;;22.07;41.56;100999.53;5100202;27;45499;-65
2022/08/29 08:21:17;;;;;;;;;7.33;6.33;;;;;22.11;41.55;101000.13;5046880;27;45449;-63
2022/08/29 08:24:10;;;;;;;;;6.00;5.00;;;;;22.15;41.64;100994.41;5099678;27;45379;-64
2022/08/29 08:26:47;;;;;;;;;4.67;4.00;;;;;22.20;41.39;100996.78;5047161;27;45390;-65
2022/08/29 08:29:14;;;;;;;;;2.75;2.75;;;;;22.18;41.24;100996.00;5081416;27;46859;-64
2022/08/29 08:31:48;;;;;;;;;3.50;3.25;;;;;22.19;41.13;101001.28;5079620;27;45546;-66
2022/08/29 08:34:39;;;;;;;;;3.50;3.50;;;;;22.24;41.58;100995.56;5099911;27;45502;-63
2022/08/29 08:37:27;;;;;;;;;4.00;2.25;;;;;22.27;41.20;100995.31;5046872;27;45548;-65
2022/08/29 08:39:58;;;;;;;;;4.00;3.00;;;;;22.31;41.01;101003.97;5016281;27;45535;-62
2022/08/29 08:42:59;;;;;;;;;4.00;4.00;;;;;22.34;41.38;100999.22;5079884;27;45518;-62
2022/08/29 08:46:07;;;;;;;;;4.25;3.25;;;;;22.41;41.32;101007.66;5080442;27;45464;-63
2022/08/29 08:48:47;;;;;;;;;4.00;4.00;;;;;22.46;41.12;101005.44;5046002;27;45455;-63
2022/08/29 08:51:31;;;;;;;;;5.50;3.75;;;;;22.48;41.10;101015.06;5061119;27;46205;-65
2022/08/29 08:54:09;;;;;;;;;4.00;2.50;;;;;22.52;41.26;101004.97;5062959;27;45477;-63
2022/08/29 08:56:57;;;;;;;;;5.00;4.00;;;;;22.56;40.87;101002.91;5081201;27;45533;-65
2022/08/29 08:59:42;;;;;;;;;3.00;3.00;;;;;22.59;40.98;101006.19;5066084;27;45544;-64
2022/08/29 09:02:50;;;;;;;;;4.50;3.75;;;;;22.61;41.05;101003.38;5098752;27;45506;-63
2022/08/29 09:05:47;;;;;;;;;4.00;4.00;;;;;22.65;41.02;101010.22;5044815;27;45529;-63
2022/08/29 09:09:11;;;;;;;;;4.50;4.25;;;;;22.72;41.45;101019.47;5087073;27;45599;-63
2022/08/29 09:15:16;;;;;;;;;20.00;18.33;;;;;22.80;41.59;101010.81;5101306;27;45810;-65
2022/08/29 09:18:35;;;;;;;;;5.00;5.00;;;;;22.80;41.21;101014.34;5093551;27;45586;-64
2022/08/29 09:21:20;;;;;;;;;3.25;3.25;;;;;22.85;40.92;101009.47;4982952;28;45480;-63
2022/08/29 09:24:06;;;;;;;;;5.00;4.00;;;;;22.89;41.29;101004.69;4998970;28;44890;-65
2022/08/29 09:26:55;;;;;;;;;30.00;29.00;;;;;22.92;41.15;101005.31;4982466;28;45693;-62
2022/08/29 09:29:54;;;;;;;;;3.75;3.75;;;;;22.96;41.39;101005.94;4966298;28;45495;-65
2022/08/29 09:32:47;;;;;;;;;7.00;6.00;;;;;23.01;41.17;101005.56;4981479;28;45571;-62
2022/08/29 09:35:46;;;;;;;;;6.00;5.25;;;;;23.04;41.22;101005.31;4966059;28;45585;-62
2022/08/29 09:41:09;;;;;;;;;4.25;4.25;;;;;23.14;40.92;101004.44;4998596;28;45596;-64
2022/08/29 09:44:02;;;;;;;;;6.25;5.00;;;;;23.17;40.87;101010.53;4998549;28;45460;-63
2022/08/29 09:46:38;;;;;;;;;5.00;5.00;;;;;23.22;40.89;101001.13;4982560;28;45480;-65
2022/08/29 09:49:29;;;;;;;;;7.00;4.50;;;;;23.24;41.26;100998.31;4997102;28;45492;-64
2022/08/29 09:55:47;;;;;;;;;7.00;5.50;;;;;23.36;41.36;101005.38;4998915;28;45574;-64
2022/08/29 09:58:36;;;;;;;;;5.00;4.00;;;;;23.41;40.93;101000.47;5081095;27;45525;-63
2022/08/29 10:01:22;;;;;;;;;4.00;4.00;;;;;23.44;41.10;100994.00;5085701;27;45513;-64
2022/08/29 10:03:56;;;;;;;;;7.25;6.50;;;;;23.50;41.05;100998.84;5100378;27;45352;-64
2022/08/29 10:06:33;;;;;;;;;5.50;5.50;;;;;23.53;40.68;100994.06;5101696;27;45478;-64
2022/08/29 10:09:37;;;;;;;;;6.25;5.75;;;;;23.58;40.61;100999.06;5029747;28;45472;-63
2022/08/29 10:19:29;;;;;;;;;4.00;4.00;;;;;23.71;40.89;100993.50;5079102;28;45446;-65
2022/08/29 10:25:45;;;;;;;;;4.00;4.00;;;;;23.78;40.44;100984.00;5079844;28;45423;-64
2022/08/29 10:28:57;;;;;;;;;6.00;3.75;;;;;23.83;40.65;100981.78;5061202;28;45479;-63
2022/08/29 10:35:23;;;;;;;;;7.00;7.00;;;;;23.96;40.46;100984.22;5079097;28;45494;-63
2022/08/29 10:38:31;;;;;;;;;7.75;6.50;;;;;24.02;40.28;100983.72;5044118;28;45503;-63
2022/08/29 10:41:12;;;;;;;;;8.25;8.25;;;;;24.07;40.54;100983.31;5079110;28;45793;-65
2022/08/29 10:44:20;;;;;;;;;10.00;8.00;;;;;24.11;40.66;100984.75;5079156;28;45554;-64
2022/08/29 10:47:31;;;;;;;;;6.50;4.25;;;;;24.14;40.45;100979.13;5079774;28;45513;-62
2022/08/29 10:50:48;;;;;;;;;6.75;5.25;;;;;24.18;39.92;100970.66;5042126;28;45569;-63
2022/08/29 10:56:38;;;;;;;;;5.50;5.50;;;;;24.24;40.31;100963.91;5029252;28;45456;-64
2022/08/29 11:00:06;;;;;;;;;7.00;7.00;;;;;24.25;40.08;100969.13;5079421;28;45528;-64
2022/08/29 11:06:34;;;;;;;;;7.50;5.00;;;;;24.35;39.99;100966.50;4976393;28;45496;-65
2022/08/29 11:09:14;;;;;;;;;5.00;5.00;;;;;24.42;40.22;100967.69;4978621;28;45504;-63
2022/08/29 11:12:26;;;;;;;;;8.00;6.50;;;;;24.49;40.08;100972.53;5035640;28;45526;-68
2022/08/29 11:15:31;;;;;;;;;6.00;6.00;;;;;24.52;40.29;100970.41;5011752;28;45584;-64
2022/08/29 11:18:35;;;;;;;;;7.00;5.00;;;;;24.57;39.95;100972.72;5036422;28;45586;-64
2022/08/29 11:21:47;;;;;;;;;5.00;5.00;;;;;24.63;40.03;100967.63;4986671;28;45559;-65
2022/08/29 11:24:52;;;;;;;;;5.50;5.50;;;;;24.70;39.73;100967.94;5013889;28;45631;-63
2022/08/29 11:28:10;;;;;;;;;6.00;5.25;;;;;24.71;39.70;100953.50;4988764;28;45513;-63
2022/08/29 11:31:19;;;;;;;;;9.00;7.75;;;;;24.79;39.68;100960.88;4979084;28;45466;-64
2022/08/29 11:34:18;;;;;;;;;7.25;7.25;;;;;24.84;39.56;100967.53;4991160;28;45548;-64
2022/08/29 11:37:38;;;;;;;;;7.25;7.00;;;;;24.88;39.63;100960.91;4994020;28;45585;-63
2022/08/29 11:40:58;;;;;;;;;7.00;7.00;;;;;24.92;39.70;100951.56;4962655;28;45577;-65
2022/08/29 11:43:50;;;;;;;;;9.50;9.00;;;;;24.95;39.42;100954.97;4967130;28;45570;-62
2022/08/29 11:50:07;;;;;;;;;11.00;11.00;;;;;25.05;39.43;100955.84;4989909;28;45476;-64
2022/08/29 11:53:03;;;;;;;;;8.00;6.75;;;;;25.12;39.40;100949.78;4969029;28;46598;-64
2022/08/29 11:55:39;;;;;;;;;7.25;5.25;;;;;25.22;39.27;100954.34;4949296;28;45538;-65
2022/08/29 11:58:49;;;;;;;;;10.75;10.75;;;;;25.33;39.20;100946.13;4979181;28;45511;-63
2022/08/29 12:09:07;;;;;;;;;6.00;6.00;;;;;25.78;38.22;100932.88;5001903;28;45599;-63
2022/08/29 12:12:35;;;;;;;;;6.25;6.25;;;;;26.04;38.12;100940.38;4993822;28;45659;-63
2022/08/29 12:15:00;;;;;;;;;7.25;7.25;;;;;26.32;37.96;100940.44;4956823;28;45601;-63
2022/08/29 12:17:26;;;;;;;;;8.25;8.25;;;;;26.51;37.60;100948.47;4993663;28;46258;-63
2022/08/29 12:20:20;;;;;;;;;8.00;8.00;;;;;26.66;37.22;100941.56;4996276;28;45617;-64
2022/08/29 12:23:47;;;;;;;;;11.00;9.00;;;;;26.72;37.35;100932.03;5042008;28;45616;-63
2022/08/29 12:26:50;;;;;;;;;8.50;8.00;;;;;26.88;36.75;100934.06;4959889;28;45478;-65
2022/08/29 12:32:56;;;;;;;;;7.00;7.00;;;;;27.08;36.85;100929.38;5046407;28;45487;-62
2022/08/29 12:36:18;;;;;;;;;9.00;8.00;;;;;27.16;36.20;100925.91;5044312;28;45431;-65
2022/08/29 12:39:24;;;;;;;;;9.25;7.50;;;;;27.26;36.54;100921.31;4966226;28;45479;-62
2022/08/29 12:42:30;;;;;;;;;9.50;8.00;;;;;27.29;35.58;100918.28;4977104;28;45616;-64
2022/08/29 12:45:22;;;;;;;;;12.00;12.00;;;;;27.41;36.26;100924.31;4947137;28;45553;-64
2022/08/29 12:48:36;;;;;;;;;10.75;10.50;;;;;27.54;36.04;100919.38;4979596;28;45450;-65
2022/08/29 12:51:40;;;;;;;;;9.50;8.00;;;;;27.67;36.14;100921.63;4963502;28;45679;-63
2022/08/29 12:54:29;;;;;;;;;8.75;8.75;;;;;27.77;35.36;100920.53;4963652;28;47819;-62
2022/08/29 12:57:26;;;;;;;;;10.00;8.50;;;;;27.89;35.49;100918.47;4962795;28;45475;-63
2022/08/29 13:00:40;;;;;;;;;9.25;8.25;;;;;27.89;36.00;100904.94;4979224;28;45519;-64
2022/08/29 13:06:41;;;;;;;;;6.75;6.75;;;;;28.01;35.44;100894.69;4979737;28;45567;-63
2022/08/29 13:09:31;;;;;;;;;9.75;8.50;;;;;28.10;35.85;100891.03;4999390;28;45458;-64
2022/08/29 13:25:55;;;;;;;;;9.25;9.25;;;;;28.54;34.55;100879.25;5100754;27;45422;-63
2022/08/29 13:29:02;;;;;;;;;8.75;8.25;;;;;28.65;34.40;100873.50;5058560;27;45533;-64
2022/08/29 13:32:31;;;;;;;;;8.25;8.25;;;;;28.82;34.55;100864.41;5087147;27;46004;-65
2022/08/29 13:38:49;;;;;;;;;7.25;7.25;;;;;29.06;34.07;100854.63;5102199;27;45457;-64
2022/08/29 13:41:30;;;;;;;;;6.25;6.25;;;;;29.15;33.93;100858.19;5018049;28;45648;-65
2022/08/29 13:43:55;;;;;;;;;7.25;7.25;;;;;29.19;33.98;100848.72;5080110;27;45557;-65
2022/08/29 13:46:50;;;;;;;;;7.50;7.50;;;;;29.18;34.27;100855.16;5100641;27;46104;-64
2022/08/29 13:49:57;;;;;;;;;8.60;7.40;;;;;29.23;34.00;100855.47;5025509;27;45450;-65
2022/08/29 13:53:05;;;;;;;;;10.00;9.75;;;;;29.29;34.04;100852.97;5047655;27;45463;-65
2022/08/29 13:55:52;;;;;;;;;9.00;9.00;;;;;29.39;34.18;100847.38;5081915;27;47173;-62
2022/08/29 13:58:46;;;;;;;;;5.60;5.60;;;;;29.49;33.76;100853.44;5057600;27;45549;-64
2022/08/29 14:04:13;;;;;;;;;9.00;8.75;;;;;29.44;34.02;100850.38;5101158;27;45956;-64
2022/08/29 14:07:25;;;;;;;;;8.00;8.00;;;;;29.46;34.10;100844.81;5100741;27;45561;-64
2022/08/29 14:10:23;;;;;;;;;7.00;7.00;;;;;29.56;33.83;100850.06;5101549;27;45418;-62
2022/08/29 14:12:53;;;;;;;;;8.60;8.20;;;;;29.65;33.86;100843.63;5066977;27;45480;-64
2022/08/29 14:15:39;;;;;;;;;6.25;6.25;;;;;29.67;33.88;100842.44;5064691;27;45464;-65
2022/08/29 14:18:04;;;;;;;;;9.00;8.25;;;;;29.75;33.84;100848.84;5036223;27;46927;-64
2022/08/29 14:20:37;;;;;;;;;8.75;7.50;;;;;29.77;33.88;100838.66;5100664;27;45559;-62
2022/08/29 14:23:06;;;;;;;;;10.40;8.80;;;;;29.67;33.74;100833.47;5032401;27;44883;-64
2022/08/29 14:25:42;;;;;;;;;8.00;8.00;;;;;29.63;34.18;100842.91;5101114;27;45622;-64
2022/08/29 14:28:30;;;;;;;;;9.50;9.00;;;;;29.50;34.03;100832.63;5032182;27;45566;-62
2022/08/29 14:31:04;;;;;;;;;8.60;8.00;;;;;29.34;33.84;100827.19;5064791;27;45467;-62
2022/08/29 14:33:38;;;;;;;;;7.80;7.20;;;;;29.17;34.76;100842.63;5101417;27;45618;-65
2022/08/29 14:36:18;;;;;;;;;9.75;8.75;;;;;29.03;35.17;100834.13;5065176;27;45610;-66
2022/08/29 14:42:09;;;;;;;;;10.00;8.80;;;;;28.74;35.32;100822.94;5100018;27;45454;-64
2022/08/29 14:44:52;;;;;;;;;10.20;9.20;;;;;28.62;35.37;100823.25;5032438;27;45448;-65
2022/08/29 14:47:35;;;;;;;;;7.50;7.50;;;;;28.47;35.60;100819.50;5082625;27;45545;-64
2022/08/29 14:55:48;;;;;;;;;12.00;10.75;;;;;28.21;36.21;100811.47;5049954;28;45566;-62
2022/08/29 14:58:14;;;;;;;;;10.50;9.00;;;;;28.17;36.76;100813.63;5073427;27;45538;-65
2022/08/29 15:00:49;;;;;;;;;10.00;10.00;;;;;28.14;36.23;100802.31;5099521;27;46200;-66
2022/08/29 15:03:24;;;;;;;;;9.50;8.50;;;;;28.11;36.85;100797.22;5047820;27;45591;-64
2022/08/29 15:05:50;;;;;;;;;9.25;8.00;;;;;28.07;36.57;100799.41;5082093;27;45551;-63
2022/08/29 15:08:37;;;;;;;;;9.75;9.75;;;;;28.03;36.88;100798.03;5100013;27;45601;-62
2022/08/29 15:11:16;;;;;;;;;9.50;9.00;;;;;28.01;36.84;100791.94;5050215;27;46254;-64
2022/08/29 15:14:03;;;;;;;;;7.25;6.50;;;;;27.98;36.88;100793.13;5031833;27;45498;-65
2022/08/29 15:16:54;;;;;;;;;10.00;9.00;;;;;27.98;36.97;100792.28;5058506;27;45620;-64
2022/08/29 15:19:44;;;;;;;;;8.25;8.00;;;;;27.93;36.80;100787.34;5081950;27;45493;-63
2022/08/29 15:22:38;;;;;;;;;10.00;8.75;;;;;27.92;37.14;100791.06;5082643;27;45474;-65
2022/08/29 15:25:07;;;;;;;;;8.00;8.00;;;;;27.88;37.02;100786.97;5030298;27;45519;-63
2022/08/29 15:27:40;;;;;;;;;8.00;8.00;;;;;27.86;36.89;100780.91;5081189;27;45528;-64
2022/08/29 15:30:14;;;;;;;;;10.00;10.00;;;;;27.83;37.13;100783.91;5047074;27;45524;-63
2022/08/29 15:32:48;;;;;;;;;8.00;8.00;;;;;27.82;37.64;100773.28;5080957;27;48059;-64
2022/08/29 15:38:38;;;;;;;;;8.50;8.50;;;;;27.80;36.75;100780.66;5100441;27;46169;-62
2022/08/29 15:41:51;;;;;;;;;8.75;8.75;;;;;27.78;37.24;100788.97;5099355;27;45502;-63
2022/08/29 15:44:22;;;;;;;;;22.00;22.00;;;;;27.77;37.09;100787.25;5052813;27;45351;-64
2022/08/29 15:47:21;;;;;;;;;10.75;10.75;;;;;27.73;37.21;100780.47;5063782;27;45391;-66
2022/08/29 15:50:07;;;;;;;;;8.25;8.00;;;;;27.72;37.51;100781.47;5075208;27;45697;-62
2022/08/29 15:52:58;;;;;;;;;11.75;11.75;;;;;27.68;36.95;100777.41;5029987;27;45702;-65
2022/08/29 15:55:24;;;;;;;;;9.75;8.50;;;;;27.67;37.37;100773.88;5080820;27;45504;-65
2022/08/29 15:58:35;;;;;;;;;7.75;7.75;;;;;27.65;37.53;100772.34;5099507;27;45493;-65
2022/08/29 16:01:06;;;;;;;;;10.00;8.75;;;;;27.65;36.97;100781.28;5063813;27;45491;-64
2022/08/29 16:03:56;;;;;;;;;10.75;10.75;;;;;27.64;37.38;100771.47;5082087;27;45685;-64
2022/08/29 16:06:37;;;;;;;;;8.00;8.00;;;;;27.64;37.43;100776.88;5045314;27;45576;-64
2022/08/29 16:09:31;;;;;;;;;9.50;8.75;;;;;27.63;36.96;100771.66;5028713;28;45538;-65
2022/08/29 16:12:14;;;;;;;;;7.00;7.00;;;;;27.64;37.20;100759.81;5075811;28;45431;-63
2022/08/29 16:15:22;;;;;;;;;9.75;9.75;;;;;27.63;37.37;100763.53;5059903;28;45495;-65
2022/08/29 16:18:13;;;;;;;;;11.25;11.00;;;;;27.63;37.37;100761.69;5059719;28;45743;-64
2022/08/29 16:21:02;;;;;;;;;12.00;10.00;;;;;27.65;37.52;100758.81;5055086;28;45624;-65
2022/08/29 16:24:04;;;;;;;;;10.00;9.00;;;;;27.66;37.86;100761.34;5042208;28;45523;-64
2022/08/29 16:26:59;;;;;;;;;13.50;12.75;;;;;27.74;37.72;100760.53;5060455;28;45578;-65